SRD387 EGSY-EGSY

Flight info

Callsign SRD387
Flight time 0h 49m
Altitude 1500
Route NEWPORT DOCKS
Aircraft A139/L-SBGY/ACEB2

Departure

Time 2026-04-26 14:44
Airport MOD St Athan (EGSY)

Arrival

Time 2026-04-26 15:33
Airport MOD St Athan (EGSY)
Time Latitude Longitude Altitude Speed Heading
2026-04-26 14:38 51.40114 -3.43927 188 ft 0 kts 231°
2026-04-26 14:41 51.40113 -3.43927 189 ft 0 kts 231°
2026-04-26 14:42 51.40116 -3.43934 188 ft 3 kts 325°
2026-04-26 14:42 51.40126 -3.43927 189 ft 3 kts 39°
2026-04-26 14:43 51.40127 -3.43917 189 ft 0 kts 101°
2026-04-26 14:43 51.40127 -3.43915 190 ft 2 kts 99°
2026-04-26 14:43 51.40129 -3.43898 205 ft 1 kts 83°
2026-04-26 14:43 51.40237 -3.43852 297 ft 49 kts 15°
2026-04-26 14:44 51.40750 -3.43736 511 ft 96 kts 19°
2026-04-26 14:44 51.41424 -3.43547 912 ft 97 kts 17°
2026-04-26 14:44 51.42052 -3.43344 1203 ft 92 kts 22°
2026-04-26 14:44 51.42575 -3.42819 1438 ft 91 kts 43°
2026-04-26 14:45 51.43124 -3.42040 1475 ft 121 kts 51°
2026-04-26 14:45 51.43525 -3.41350 1597 ft 129 kts 53°
2026-04-26 14:45 51.44305 -3.39871 1618 ft 131 kts 53°
2026-04-26 14:45 51.44890 -3.38747 1582 ft 132 kts 53°
2026-04-26 14:46 51.45483 -3.37628 1559 ft 132 kts 53°
2026-04-26 14:46 51.46096 -3.36546 1548 ft 132 kts 46°
2026-04-26 14:46 51.46767 -3.35550 1529 ft 132 kts 46°
2026-04-26 14:46 51.47445 -3.34555 1528 ft 132 kts 46°
2026-04-26 14:47 51.48116 -3.33559 1531 ft 132 kts 46°
2026-04-26 14:47 51.48795 -3.32550 1529 ft 133 kts 46°
2026-04-26 14:47 51.49343 -3.31392 1542 ft 130 kts 66°
2026-04-26 14:47 51.49659 -3.30042 1540 ft 130 kts 73°
2026-04-26 14:48 51.49939 -3.28671 1544 ft 130 kts 73°
2026-04-26 14:48 51.50223 -3.27306 1541 ft 130 kts 73°
2026-04-26 14:48 51.50513 -3.25951 1550 ft 128 kts 73°
2026-04-26 14:48 51.50797 -3.24593 1546 ft 128 kts 73°
2026-04-26 14:49 51.51088 -3.23235 1540 ft 128 kts 73°
2026-04-26 14:49 51.51378 -3.21880 1531 ft 129 kts 73°
2026-04-26 14:49 51.51665 -3.20524 1537 ft 129 kts 73°
2026-04-26 14:49 51.51957 -3.19160 1540 ft 129 kts 73°
2026-04-26 14:50 51.52240 -3.17802 1538 ft 129 kts 73°
2026-04-26 14:50 51.52527 -3.16434 1529 ft 130 kts 73°
2026-04-26 14:50 51.52817 -3.15061 1539 ft 130 kts 73°
2026-04-26 14:50 51.53100 -3.13677 1541 ft 130 kts 73°
2026-04-26 14:51 51.53383 -3.12308 1549 ft 129 kts 73°
2026-04-26 14:51 51.53669 -3.10941 1538 ft 130 kts 73°
2026-04-26 14:51 51.53956 -3.09577 1540 ft 129 kts 73°
2026-04-26 14:51 51.54245 -3.08217 1546 ft 129 kts 73°
2026-04-26 14:52 51.54530 -3.06871 1554 ft 127 kts 73°
2026-04-26 14:52 51.54808 -3.05536 1603 ft 121 kts 74°
2026-04-26 14:52 51.55065 -3.04361 1615 ft 103 kts 74°
2026-04-26 14:52 51.55281 -3.03380 1571 ft 85 kts 74°
2026-04-26 14:53 51.55466 -3.02528 1492 ft 79 kts 74°
2026-04-26 14:53 51.55648 -3.01703 1474 ft 79 kts 74°
2026-04-26 14:53 51.55828 -3.00883 1517 ft 75 kts 74°
2026-04-26 14:53 51.56000 -3.00132 1535 ft 70 kts 74°
2026-04-26 14:54 51.56129 -2.99404 1514 ft 67 kts 88°
2026-04-26 14:54 51.56078 -2.98674 1507 ft 65 kts 111°
2026-04-26 14:54 51.55843 -2.98056 1509 ft 66 kts 133°
2026-04-26 14:54 51.55462 -2.97654 1522 ft 67 kts 156°
2026-04-26 14:55 51.55001 -2.97539 1516 ft 68 kts 178°
2026-04-26 14:55 51.54530 -2.97723 1369 ft 74 kts 198°
2026-04-26 14:55 51.54159 -2.98291 1209 ft 76 kts 230°
2026-04-26 14:55 51.54025 -2.99107 1033 ft 78 kts 271°
2026-04-26 14:56 51.54202 -2.99917 981 ft 78 kts 307°
2026-04-26 14:56 51.54634 -3.00403 1000 ft 75 kts 348°
2026-04-26 14:56 51.55104 -3.00375 1028 ft 64 kts 29°
2026-04-26 14:56 51.55406 -2.99925 1014 ft 58 kts 66°
2026-04-26 14:57 51.55465 -2.99312 1004 ft 56 kts 104°
2026-04-26 14:57 51.55270 -2.98791 1014 ft 55 kts 136°
2026-04-26 14:57 51.54984 -2.98378 1031 ft 55 kts 136°
2026-04-26 14:57 51.54699 -2.97965 1034 ft 55 kts 136°
2026-04-26 14:58 51.54423 -2.97540 1032 ft 56 kts 136°
2026-04-26 14:58 51.54058 -2.97659 1028 ft 64 kts 242°
2026-04-26 14:58 51.54073 -2.98373 1025 ft 67 kts 283°
2026-04-26 14:58 51.54146 -2.99110 1028 ft 68 kts 255°
2026-04-26 14:59 51.53884 -2.99650 1040 ft 61 kts 196°
2026-04-26 14:59 51.53506 -2.99580 1038 ft 55 kts 137°
2026-04-26 14:59 51.53392 -2.99025 1038 ft 56 kts 79°
2026-04-26 14:59 51.53474 -2.98621 1032 ft 58 kts 73°
2026-04-26 15:00 51.53718 -2.97856 1022 ft 66 kts 28°
2026-04-26 15:00 51.54108 -2.98084 1042 ft 66 kts 296°
2026-04-26 15:00 51.54003 -2.98699 1034 ft 59 kts 200°
2026-04-26 15:00 51.53687 -2.98501 1028 ft 55 kts 107°
2026-04-26 15:01 51.53888 -2.98020 1032 ft 64 kts 13°
2026-04-26 15:01 51.54238 -2.98393 1045 ft 67 kts 282°
2026-04-26 15:01 51.54051 -2.98960 1049 ft 59 kts 188°
2026-04-26 15:01 51.53747 -2.98687 1049 ft 55 kts 105°
2026-04-26 15:02 51.53923 -2.98168 1057 ft 61 kts 25°
2026-04-26 15:02 51.54301 -2.98418 1050 ft 67 kts 293°
2026-04-26 15:02 51.54179 -2.99026 1046 ft 60 kts 198°
2026-04-26 15:02 51.53822 -2.98891 1053 ft 55 kts 128°
2026-04-26 15:03 51.53796 -2.98301 1058 ft 60 kts 64°
2026-04-26 15:03 51.54169 -2.98013 1052 ft 67 kts 353°
2026-04-26 15:03 51.54428 -2.98551 1051 ft 65 kts 258°
2026-04-26 15:03 51.54144 -2.98940 1046 ft 56 kts 167°
2026-04-26 15:04 51.53863 -2.98574 1053 ft 55 kts 106°
2026-04-26 15:04 51.53989 -2.98005 1055 ft 62 kts 42°
2026-04-26 15:04 51.54402 -2.97985 1076 ft 67 kts 326°
2026-04-26 15:04 51.54515 -2.98673 1254 ft 67 kts 249°
2026-04-26 15:05 51.54171 -2.98974 1498 ft 58 kts 172°
2026-04-26 15:05 51.54060 -2.98880 1575 ft 54 kts 134°
2026-04-26 15:05 51.54343 -2.98251 1548 ft 64 kts
2026-04-26 15:05 51.54773 -2.98052 1559 ft 64 kts 34°
2026-04-26 15:06 51.55047 -2.97547 1561 ft 61 kts 65°
2026-04-26 15:06 51.55325 -2.97030 1558 ft 64 kts 43°
2026-04-26 15:06 51.55735 -2.96769 1555 ft 67 kts
2026-04-26 15:06 51.56140 -2.97081 1557 ft 67 kts 310°
2026-04-26 15:07 51.56596 -2.98376 1552 ft 67 kts 293°
2026-04-26 15:07 51.56867 -2.98993 1417 ft 73 kts 320°
2026-04-26 15:07 51.57338 -2.99089 1267 ft 68 kts 15°
2026-04-26 15:08 51.57639 -2.98589 1085 ft 62 kts 70°
2026-04-26 15:08 51.57525 -2.98041 1010 ft 51 kts 148°
2026-04-26 15:08 51.57222 -2.98114 992 ft 48 kts 226°
2026-04-26 15:08 51.57242 -2.98583 951 ft 44 kts 321°
2026-04-26 15:09 51.57469 -2.98579 857 ft 31 kts 69°
2026-04-26 15:09 51.57434 -2.98431 599 ft 20 kts 196°
2026-04-26 15:09 51.57362 -2.98498 429 ft 8 kts 200°
2026-04-26 15:09 51.57351 -2.98545 427 ft 7 kts 208°
2026-04-26 15:10 51.57372 -2.98620 503 ft 9 kts 15°
2026-04-26 15:10 51.57385 -2.98707 551 ft 16 kts 59°
2026-04-26 15:10 51.57503 -2.98913 637 ft 15 kts 114°
2026-04-26 15:10 51.57521 -2.98881 707 ft 14 kts 127°
2026-04-26 15:11 51.57600 -2.98697 917 ft 14 kts 130°
2026-04-26 15:11 51.57660 -2.98673 656 ft 12 kts 106°
2026-04-26 15:11 51.57524 -2.98661 631 ft 22 kts 115°
2026-04-26 15:11 51.57457 -2.98406 633 ft 32 kts 100°
2026-04-26 15:12 51.57499 -2.98036 622 ft 34 kts 88°
2026-04-26 15:12 51.57336 -2.97821 619 ft 34 kts 179°
2026-04-26 15:12 51.57136 -2.98057 630 ft 40 kts 216°
2026-04-26 15:12 51.57013 -2.98476 620 ft 40 kts 218°
2026-04-26 15:13 51.56921 -2.98833 653 ft 27 kts 224°
2026-04-26 15:13 51.56807 -2.98723 625 ft 20 kts 72°
2026-04-26 15:13 51.56901 -2.98578 621 ft 23 kts 40°
2026-04-26 15:13 51.57031 -2.98458 615 ft 20 kts 37°
2026-04-26 15:14 51.57172 -2.98405 626 ft 24 kts 41°
2026-04-26 15:14 51.57275 -2.98303 626 ft 24 kts 94°
2026-04-26 15:14 51.57138 -2.98311 610 ft 18 kts 232°
2026-04-26 15:14 51.56953 -2.98247 674 ft 40 kts 139°
2026-04-26 15:15 51.57023 -2.98162 652 ft 27 kts 319°
2026-04-26 15:15 51.56962 -2.98325 645 ft 14 kts 102°
2026-04-26 15:15 51.56943 -2.98278 640 ft 22 kts 54°
2026-04-26 15:15 51.57130 -2.98329 621 ft 32 kts 343°
2026-04-26 15:16 51.57279 -2.98269 620 ft 11 kts 51°
2026-04-26 15:16 51.57297 -2.98257 618 ft 4 kts 159°
2026-04-26 15:16 51.57262 -2.98246 621 ft 3 kts 196°
2026-04-26 15:16 51.57240 -2.98250 619 ft 0 kts 196°
2026-04-26 15:17 51.57240 -2.98259 620 ft 3 kts 196°
2026-04-26 15:17 51.57240 -2.98301 620 ft 7 kts 196°
2026-04-26 15:17 51.57240 -2.98376 620 ft 3 kts 188°
2026-04-26 15:17 51.57217 -2.98431 618 ft 21 kts 150°
2026-04-26 15:18 51.57177 -2.98677 601 ft 11 kts 242°
2026-04-26 15:18 51.57250 -2.98784 498 ft 19 kts 245°
2026-04-26 15:18 51.57313 -2.99007 658 ft 34 kts 352°
2026-04-26 15:18 51.57382 -2.99494 1025 ft 63 kts 277°
2026-04-26 15:19 51.57156 -3.00225 1301 ft 82 kts 207°
2026-04-26 15:19 51.56740 -3.00091 1300 ft 67 kts 95°
2026-04-26 15:19 51.56867 -2.99321 1090 ft 80 kts 48°
2026-04-26 15:19 51.57101 -2.98566 1033 ft 70 kts 91°
2026-04-26 15:20 51.56867 -2.98065 1003 ft 57 kts 156°
2026-04-26 15:20 51.56623 -2.97590 997 ft 54 kts 120°
2026-04-26 15:20 51.56440 -2.97056 1003 ft 55 kts 129°
2026-04-26 15:20 51.56144 -2.96666 1015 ft 56 kts 143°
2026-04-26 15:21 51.55743 -2.96630 1024 ft 59 kts 187°
2026-04-26 15:21 51.55370 -2.96900 1033 ft 62 kts 223°
2026-04-26 15:21 51.55101 -2.97451 1033 ft 65 kts 224°
2026-04-26 15:21 51.54862 -2.98069 1040 ft 65 kts 224°
2026-04-26 15:22 51.54582 -2.98614 1043 ft 62 kts 215°
2026-04-26 15:22 51.54184 -2.98995 963 ft 79 kts 206°
2026-04-26 15:22 51.53626 -2.99605 880 ft 119 kts 216°
2026-04-26 15:22 51.52946 -3.00519 1014 ft 132 kts 217°
2026-04-26 15:23 51.52239 -3.01468 1091 ft 132 kts 218°
2026-04-26 15:23 51.51537 -3.02417 1057 ft 134 kts 218°
2026-04-26 15:23 51.50828 -3.03375 1045 ft 134 kts 218°
2026-04-26 15:23 51.50124 -3.04333 1029 ft 135 kts 218°
2026-04-26 15:24 51.49401 -3.05306 1038 ft 134 kts 218°
2026-04-26 15:24 51.48695 -3.06265 1034 ft 134 kts 218°
2026-04-26 15:24 51.47981 -3.07231 1022 ft 135 kts 218°
2026-04-26 15:24 51.47268 -3.08187 1000 ft 134 kts 216°
2026-04-26 15:25 51.46550 -3.09112 850 ft 134 kts 214°
2026-04-26 15:25 51.46053 -3.09711 744 ft 133 kts 216°
2026-04-26 15:25 51.45091 -3.10936 691 ft 133 kts 216°
2026-04-26 15:25 51.44372 -3.11885 689 ft 134 kts 216°
2026-04-26 15:26 51.43639 -3.12809 720 ft 134 kts 216°
2026-04-26 15:26 51.42922 -3.13734 740 ft 133 kts 216°
2026-04-26 15:26 51.42198 -3.14664 740 ft 133 kts 216°
2026-04-26 15:26 51.41471 -3.15587 739 ft 134 kts 216°
2026-04-26 15:27 51.40763 -3.16536 742 ft 134 kts 222°
2026-04-26 15:27 51.40169 -3.17695 732 ft 136 kts 235°
2026-04-26 15:27 51.39792 -3.19087 739 ft 137 kts 252°
2026-04-26 15:27 51.39557 -3.20557 740 ft 137 kts 254°
2026-04-26 15:28 51.39322 -3.22034 733 ft 137 kts 254°
2026-04-26 15:28 51.39087 -3.23501 732 ft 137 kts 254°
2026-04-26 15:28 51.38852 -3.24978 736 ft 137 kts 254°
2026-04-26 15:28 51.38619 -3.26447 738 ft 137 kts 254°
2026-04-26 15:29 51.38386 -3.27912 741 ft 137 kts 254°
2026-04-26 15:29 51.38186 -3.29404 746 ft 137 kts 260°
2026-04-26 15:29 51.37992 -3.32203 894 ft 101 kts 264°
2026-04-26 15:30 51.37940 -3.34031 667 ft 76 kts 264°
2026-04-26 15:30 51.37904 -3.34875 690 ft 77 kts 264°
2026-04-26 15:30 51.37932 -3.35726 729 ft 78 kts 277°
2026-04-26 15:31 51.38001 -3.36587 747 ft 78 kts 277°
2026-04-26 15:31 51.38164 -3.38285 752 ft 78 kts 277°
2026-04-26 15:31 51.38243 -3.39134 750 ft 77 kts 277°
2026-04-26 15:32 51.38348 -3.40269 746 ft 77 kts 277°
2026-04-26 15:32 51.38558 -3.41663 737 ft 78 kts 289°
2026-04-26 15:32 51.38741 -3.42442 639 ft 74 kts 296°
2026-04-26 15:33 51.38986 -3.43113 607 ft 66 kts 298°
2026-04-26 15:33 51.39200 -3.43705 547 ft 58 kts 298°
2026-04-26 15:33 51.39374 -3.44236 475 ft 51 kts 313°
2026-04-26 15:33 51.39628 -3.44560 420 ft 42 kts 336°
2026-04-26 15:34 51.39873 -3.44612 335 ft 33 kts 24°
2026-04-26 15:34 51.40027 -3.44410 280 ft 23 kts 66°
2026-04-26 15:34 51.40059 -3.44273 239 ft 8 kts 72°
2026-04-26 15:34 51.40095 -3.44164 237 ft 8 kts 80°
2026-04-26 15:35 51.40114 -3.44068 222 ft 11 kts 73°
2026-04-26 15:35 51.40131 -3.43980 205 ft 6 kts 79°
2026-04-26 15:35 51.40132 -3.43936 196 ft 2 kts 73°
2026-04-26 15:35 51.40132 -3.43925 189 ft 4 kts 47°
2026-04-26 15:36 51.40139 -3.43933 188 ft 4 kts 57°
2026-04-26 15:36 51.40135 -3.43950 187 ft 1 kts 76°
2026-04-26 15:36 51.40135 -3.43949 186 ft 0 kts 71°
2026-04-26 15:36 51.40136 -3.43949 186 ft 0 kts 71°
2026-04-26 15:47 51.32072 0.03543 630 ft 0 kts 64°